sensor_id;sensor_type;location;lat;lon;timestamp;P1;durP1;ratioP1;P2;durP2;ratioP2
47760;SDS011;33524;55.434;38.520;2023-03-31T00:00:42;16.00;;;11.10;;
47760;SDS011;33524;55.434;38.520;2023-03-31T00:03:13;13.88;;;8.50;;
47760;SDS011;33524;55.434;38.520;2023-03-31T00:05:54;13.32;;;9.68;;
47760;SDS011;33524;55.434;38.520;2023-03-31T00:08:27;14.05;;;8.35;;
47760;SDS011;33524;55.434;38.520;2023-03-31T00:11:03;15.10;;;10.65;;
47760;SDS011;33524;55.434;38.520;2023-03-31T00:13:36;15.65;;;11.55;;
47760;SDS011;33524;55.434;38.520;2023-03-31T00:16:09;13.45;;;8.48;;
47760;SDS011;33524;55.434;38.520;2023-03-31T00:18:40;14.30;;;10.23;;
47760;SDS011;33524;55.434;38.520;2023-03-31T00:21:18;14.13;;;9.93;;
47760;SDS011;33524;55.434;38.520;2023-03-31T00:24:00;13.95;;;7.40;;
47760;SDS011;33524;55.434;38.520;2023-03-31T00:26:34;12.25;;;8.70;;
47760;SDS011;33524;55.434;38.520;2023-03-31T00:29:10;9.98;;;7.28;;
47760;SDS011;33524;55.434;38.520;2023-03-31T00:31:43;13.40;;;8.90;;
47760;SDS011;33524;55.434;38.520;2023-03-31T00:34:16;12.90;;;7.95;;
47760;SDS011;33524;55.434;38.520;2023-03-31T00:36:48;13.62;;;8.48;;
47760;SDS011;33524;55.434;38.520;2023-03-31T00:39:24;10.85;;;6.85;;
47760;SDS011;33524;55.434;38.520;2023-03-31T00:42:01;12.45;;;7.55;;
47760;SDS011;33524;55.434;38.520;2023-03-31T00:44:34;9.68;;;7.05;;
47760;SDS011;33524;55.434;38.520;2023-03-31T00:47:13;11.43;;;6.78;;
47760;SDS011;33524;55.434;38.520;2023-03-31T00:49:49;10.10;;;7.45;;
47760;SDS011;33524;55.434;38.520;2023-03-31T00:55:01;9.63;;;6.70;;
47760;SDS011;33524;55.434;38.520;2023-03-31T00:57:39;9.80;;;7.95;;
47760;SDS011;33524;55.434;38.520;2023-03-31T01:00:13;10.50;;;7.57;;
47760;SDS011;33524;55.434;38.520;2023-03-31T01:02:49;10.35;;;6.60;;
47760;SDS011;33524;55.434;38.520;2023-03-31T01:05:30;10.25;;;8.00;;
47760;SDS011;33524;55.434;38.520;2023-03-31T01:08:08;10.82;;;7.20;;
47760;SDS011;33524;55.434;38.520;2023-03-31T01:13:13;10.15;;;7.57;;
47760;SDS011;33524;55.434;38.520;2023-03-31T01:15:46;9.05;;;6.55;;
47760;SDS011;33524;55.434;38.520;2023-03-31T01:18:18;10.43;;;6.28;;
47760;SDS011;33524;55.434;38.520;2023-03-31T01:24:04;9.32;;;6.80;;
47760;SDS011;33524;55.434;38.520;2023-03-31T01:27:10;8.57;;;6.32;;
47760;SDS011;33524;55.434;38.520;2023-03-31T01:42:09;9.20;;;6.85;;
47760;SDS011;33524;55.434;38.520;2023-03-31T01:44:51;9.73;;;6.25;;
47760;SDS011;33524;55.434;38.520;2023-03-31T01:47:52;9.00;;;5.32;;
47760;SDS011;33524;55.434;38.520;2023-03-31T01:50:52;8.70;;;7.05;;
47760;SDS011;33524;55.434;38.520;2023-03-31T01:53:35;9.60;;;7.03;;
47760;SDS011;33524;55.434;38.520;2023-03-31T01:56:34;7.60;;;5.65;;
47760;SDS011;33524;55.434;38.520;2023-03-31T01:59:28;8.93;;;6.80;;
47760;SDS011;33524;55.434;38.520;2023-03-31T02:02:27;11.93;;;7.32;;
47760;SDS011;33524;55.434;38.520;2023-03-31T02:05:09;8.70;;;6.82;;
47760;SDS011;33524;55.434;38.520;2023-03-31T02:07:46;9.68;;;6.20;;
47760;SDS011;33524;55.434;38.520;2023-03-31T02:10:24;9.02;;;6.30;;
47760;SDS011;33524;55.434;38.520;2023-03-31T02:12:59;8.88;;;5.53;;
47760;SDS011;33524;55.434;38.520;2023-03-31T02:15:34;9.60;;;6.82;;
47760;SDS011;33524;55.434;38.520;2023-03-31T02:18:12;8.82;;;6.75;;
47760;SDS011;33524;55.434;38.520;2023-03-31T02:20:48;9.02;;;6.57;;
47760;SDS011;33524;55.434;38.520;2023-03-31T02:23:24;8.60;;;5.43;;
47760;SDS011;33524;55.434;38.520;2023-03-31T02:26:07;8.30;;;5.55;;
47760;SDS011;33524;55.434;38.520;2023-03-31T02:28:43;9.13;;;6.68;;
47760;SDS011;33524;55.434;38.520;2023-03-31T02:31:20;9.55;;;7.03;;
47760;SDS011;33524;55.434;38.520;2023-03-31T02:34:02;8.85;;;5.78;;
47760;SDS011;33524;55.434;38.520;2023-03-31T02:36:34;9.45;;;5.25;;
47760;SDS011;33524;55.434;38.520;2023-03-31T02:39:07;8.70;;;5.65;;
47760;SDS011;33524;55.434;38.520;2023-03-31T02:41:42;7.68;;;6.00;;
47760;SDS011;33524;55.434;38.520;2023-03-31T02:44:14;8.38;;;6.00;;
47760;SDS011;33524;55.434;38.520;2023-03-31T02:49:19;9.77;;;7.57;;
47760;SDS011;33524;55.434;38.520;2023-03-31T02:54:32;8.40;;;5.97;;
47760;SDS011;33524;55.434;38.520;2023-03-31T03:09:40;10.13;;;7.37;;
47760;SDS011;33524;55.434;38.520;2023-03-31T03:12:05;8.35;;;6.62;;
47760;SDS011;33524;55.434;38.520;2023-03-31T03:17:38;7.70;;;5.15;;
47760;SDS011;33524;55.434;38.520;2023-03-31T03:20:14;8.90;;;5.95;;
47760;SDS011;33524;55.434;38.520;2023-03-31T03:22:48;9.55;;;5.93;;
47760;SDS011;33524;55.434;38.520;2023-03-31T03:25:20;6.97;;;4.85;;
47760;SDS011;33524;55.434;38.520;2023-03-31T03:27:52;8.95;;;5.35;;
47760;SDS011;33524;55.434;38.520;2023-03-31T03:30:24;7.33;;;4.73;;
47760;SDS011;33524;55.434;38.520;2023-03-31T03:32:57;8.88;;;5.78;;
47760;SDS011;33524;55.434;38.520;2023-03-31T03:35:29;8.98;;;5.80;;
47760;SDS011;33524;55.434;38.520;2023-03-31T03:38:01;9.45;;;5.53;;
47760;SDS011;33524;55.434;38.520;2023-03-31T03:40:33;8.82;;;5.30;;
47760;SDS011;33524;55.434;38.520;2023-03-31T03:43:05;6.85;;;5.05;;
47760;SDS011;33524;55.434;38.520;2023-03-31T03:45:38;9.88;;;7.00;;
47760;SDS011;33524;55.434;38.520;2023-03-31T03:48:10;8.65;;;6.05;;
47760;SDS011;33524;55.434;38.520;2023-03-31T03:50:44;9.63;;;5.47;;
47760;SDS011;33524;55.434;38.520;2023-03-31T03:53:16;6.93;;;5.05;;
47760;SDS011;33524;55.434;38.520;2023-03-31T03:55:48;7.65;;;5.03;;
47760;SDS011;33524;55.434;38.520;2023-03-31T03:58:20;8.63;;;5.57;;
47760;SDS011;33524;55.434;38.520;2023-03-31T04:00:51;7.85;;;5.40;;
47760;SDS011;33524;55.434;38.520;2023-03-31T04:03:23;7.60;;;5.28;;
47760;SDS011;33524;55.434;38.520;2023-03-31T04:05:55;8.17;;;5.90;;
47760;SDS011;33524;55.434;38.520;2023-03-31T04:08:28;7.85;;;4.70;;
47760;SDS011;33524;55.434;38.520;2023-03-31T04:11:00;6.72;;;4.32;;
47760;SDS011;33524;55.434;38.520;2023-03-31T04:13:32;6.57;;;3.53;;
47760;SDS011;33524;55.434;38.520;2023-03-31T04:16:04;6.15;;;3.53;;
47760;SDS011;33524;55.434;38.520;2023-03-31T04:18:37;7.18;;;4.60;;
47760;SDS011;33524;55.434;38.520;2023-03-31T04:21:12;6.72;;;4.18;;
47760;SDS011;33524;55.434;38.520;2023-03-31T04:23:52;4.75;;;3.00;;
47760;SDS011;33524;55.434;38.520;2023-03-31T04:26:28;5.95;;;4.00;;
47760;SDS011;33524;55.434;38.520;2023-03-31T04:29:13;6.35;;;4.62;;
47760;SDS011;33524;55.434;38.520;2023-03-31T04:31:44;6.75;;;4.25;;
47760;SDS011;33524;55.434;38.520;2023-03-31T04:34:15;6.15;;;4.15;;
47760;SDS011;33524;55.434;38.520;2023-03-31T04:36:46;8.15;;;5.35;;
47760;SDS011;33524;55.434;38.520;2023-03-31T04:39:18;7.03;;;4.55;;
47760;SDS011;33524;55.434;38.520;2023-03-31T04:41:56;7.53;;;4.00;;
47760;SDS011;33524;55.434;38.520;2023-03-31T04:44:29;6.12;;;4.43;;
47760;SDS011;33524;55.434;38.520;2023-03-31T04:47:00;8.30;;;5.28;;
47760;SDS011;33524;55.434;38.520;2023-03-31T04:49:32;9.07;;;4.75;;
47760;SDS011;33524;55.434;38.520;2023-03-31T04:52:04;8.57;;;5.78;;
47760;SDS011;33524;55.434;38.520;2023-03-31T04:54:36;6.68;;;4.15;;
47760;SDS011;33524;55.434;38.520;2023-03-31T04:57:08;6.68;;;4.12;;
47760;SDS011;33524;55.434;38.520;2023-03-31T04:59:40;5.55;;;4.05;;
47760;SDS011;33524;55.434;38.520;2023-03-31T05:02:13;5.95;;;4.28;;
47760;SDS011;33524;55.434;38.520;2023-03-31T05:04:53;5.62;;;4.10;;
47760;SDS011;33524;55.434;38.520;2023-03-31T05:07:26;6.40;;;3.85;;
47760;SDS011;33524;55.434;38.520;2023-03-31T05:09:58;5.62;;;3.45;;
47760;SDS011;33524;55.434;38.520;2023-03-31T05:12:34;6.10;;;4.65;;
47760;SDS011;33524;55.434;38.520;2023-03-31T05:15:06;6.03;;;5.20;;
47760;SDS011;33524;55.434;38.520;2023-03-31T05:17:37;6.25;;;4.72;;
47760;SDS011;33524;55.434;38.520;2023-03-31T05:20:06;7.10;;;4.97;;
47760;SDS011;33524;55.434;38.520;2023-03-31T05:22:40;6.75;;;4.97;;
47760;SDS011;33524;55.434;38.520;2023-03-31T05:25:11;6.35;;;4.30;;
47760;SDS011;33524;55.434;38.520;2023-03-31T05:27:47;6.75;;;5.40;;
47760;SDS011;33524;55.434;38.520;2023-03-31T05:30:17;6.93;;;3.97;;
47760;SDS011;33524;55.434;38.520;2023-03-31T05:32:49;5.35;;;4.15;;
47760;SDS011;33524;55.434;38.520;2023-03-31T05:35:22;6.55;;;4.07;;
47760;SDS011;33524;55.434;38.520;2023-03-31T05:37:54;5.97;;;3.87;;
47760;SDS011;33524;55.434;38.520;2023-03-31T05:40:26;6.00;;;4.35;;
47760;SDS011;33524;55.434;38.520;2023-03-31T05:42:57;5.90;;;4.35;;
47760;SDS011;33524;55.434;38.520;2023-03-31T05:45:29;4.97;;;3.80;;
47760;SDS011;33524;55.434;38.520;2023-03-31T05:48:02;4.50;;;3.05;;
47760;SDS011;33524;55.434;38.520;2023-03-31T05:50:32;5.28;;;3.30;;
47760;SDS011;33524;55.434;38.520;2023-03-31T05:53:04;5.70;;;3.72;;
47760;SDS011;33524;55.434;38.520;2023-03-31T05:55:36;6.10;;;3.73;;
47760;SDS011;33524;55.434;38.520;2023-03-31T05:58:08;7.20;;;4.53;;
47760;SDS011;33524;55.434;38.520;2023-03-31T06:00:40;6.37;;;4.45;;
47760;SDS011;33524;55.434;38.520;2023-03-31T06:03:13;6.07;;;3.53;;
47760;SDS011;33524;55.434;38.520;2023-03-31T06:05:46;5.07;;;3.78;;
47760;SDS011;33524;55.434;38.520;2023-03-31T06:08:18;5.55;;;4.32;;
47760;SDS011;33524;55.434;38.520;2023-03-31T06:10:50;6.68;;;3.97;;
47760;SDS011;33524;55.434;38.520;2023-03-31T06:13:21;6.60;;;4.00;;
47760;SDS011;33524;55.434;38.520;2023-03-31T06:15:53;6.22;;;3.97;;
47760;SDS011;33524;55.434;38.520;2023-03-31T06:18:27;5.10;;;3.65;;
47760;SDS011;33524;55.434;38.520;2023-03-31T06:20:59;5.97;;;3.60;;
47760;SDS011;33524;55.434;38.520;2023-03-31T06:23:32;7.07;;;4.75;;
47760;SDS011;33524;55.434;38.520;2023-03-31T06:26:05;7.43;;;5.00;;
47760;SDS011;33524;55.434;38.520;2023-03-31T06:28:38;4.60;;;3.55;;
47760;SDS011;33524;55.434;38.520;2023-03-31T06:31:11;5.83;;;4.03;;
47760;SDS011;33524;55.434;38.520;2023-03-31T06:33:45;5.30;;;3.80;;
47760;SDS011;33524;55.434;38.520;2023-03-31T06:36:18;5.05;;;3.90;;
47760;SDS011;33524;55.434;38.520;2023-03-31T06:38:52;5.53;;;3.33;;
47760;SDS011;33524;55.434;38.520;2023-03-31T06:41:24;5.47;;;3.80;;
47760;SDS011;33524;55.434;38.520;2023-03-31T06:43:57;6.57;;;4.37;;
47760;SDS011;33524;55.434;38.520;2023-03-31T06:46:28;6.30;;;3.70;;
47760;SDS011;33524;55.434;38.520;2023-03-31T06:49:00;5.22;;;3.75;;
47760;SDS011;33524;55.434;38.520;2023-03-31T06:51:31;5.20;;;4.00;;
47760;SDS011;33524;55.434;38.520;2023-03-31T06:54:05;6.07;;;4.30;;
47760;SDS011;33524;55.434;38.520;2023-03-31T06:56:37;7.53;;;4.53;;
47760;SDS011;33524;55.434;38.520;2023-03-31T06:59:09;7.00;;;4.87;;
47760;SDS011;33524;55.434;38.520;2023-03-31T07:01:43;7.43;;;4.85;;
47760;SDS011;33524;55.434;38.520;2023-03-31T07:04:17;8.50;;;5.65;;
47760;SDS011;33524;55.434;38.520;2023-03-31T07:06:48;8.35;;;5.90;;
47760;SDS011;33524;55.434;38.520;2023-03-31T07:09:20;7.60;;;5.07;;
47760;SDS011;33524;55.434;38.520;2023-03-31T07:11:52;7.55;;;4.60;;
47760;SDS011;33524;55.434;38.520;2023-03-31T07:14:24;9.85;;;6.20;;
47760;SDS011;33524;55.434;38.520;2023-03-31T07:16:56;7.03;;;5.10;;
47760;SDS011;33524;55.434;38.520;2023-03-31T07:19:28;7.95;;;4.60;;
47760;SDS011;33524;55.434;38.520;2023-03-31T07:22:00;8.00;;;4.62;;
47760;SDS011;33524;55.434;38.520;2023-03-31T07:24:32;5.62;;;4.10;;
47760;SDS011;33524;55.434;38.520;2023-03-31T07:27:04;7.78;;;5.37;;
47760;SDS011;33524;55.434;38.520;2023-03-31T07:29:36;8.27;;;5.43;;
47760;SDS011;33524;55.434;38.520;2023-03-31T07:32:08;7.45;;;4.80;;
47760;SDS011;33524;55.434;38.520;2023-03-31T07:34:39;6.75;;;4.37;;
47760;SDS011;33524;55.434;38.520;2023-03-31T07:37:13;7.78;;;6.03;;
47760;SDS011;33524;55.434;38.520;2023-03-31T07:39:45;7.15;;;4.30;;
47760;SDS011;33524;55.434;38.520;2023-03-31T07:42:16;8.20;;;5.90;;
47760;SDS011;33524;55.434;38.520;2023-03-31T07:44:48;7.05;;;5.35;;
47760;SDS011;33524;55.434;38.520;2023-03-31T07:47:19;9.30;;;6.20;;
47760;SDS011;33524;55.434;38.520;2023-03-31T07:49:53;8.40;;;5.22;;
47760;SDS011;33524;55.434;38.520;2023-03-31T07:52:26;7.80;;;5.37;;
47760;SDS011;33524;55.434;38.520;2023-03-31T07:54:57;9.60;;;5.62;;
47760;SDS011;33524;55.434;38.520;2023-03-31T07:57:29;7.22;;;4.68;;
47760;SDS011;33524;55.434;38.520;2023-03-31T08:00:04;8.10;;;5.60;;
47760;SDS011;33524;55.434;38.520;2023-03-31T08:02:41;8.10;;;5.95;;
47760;SDS011;33524;55.434;38.520;2023-03-31T08:05:14;9.82;;;5.10;;
47760;SDS011;33524;55.434;38.520;2023-03-31T08:07:48;7.18;;;5.45;;
47760;SDS011;33524;55.434;38.520;2023-03-31T08:10:20;13.05;;;7.85;;
47760;SDS011;33524;55.434;38.520;2023-03-31T08:12:55;11.68;;;8.68;;
47760;SDS011;33524;55.434;38.520;2023-03-31T08:15:27;9.77;;;5.78;;
47760;SDS011;33524;55.434;38.520;2023-03-31T08:17:59;11.45;;;6.35;;
47760;SDS011;33524;55.434;38.520;2023-03-31T08:20:32;12.23;;;7.82;;
47760;SDS011;33524;55.434;38.520;2023-03-31T08:23:04;8.88;;;6.20;;
47760;SDS011;33524;55.434;38.520;2023-03-31T08:25:37;10.57;;;7.20;;
47760;SDS011;33524;55.434;38.520;2023-03-31T08:28:07;10.85;;;7.85;;
47760;SDS011;33524;55.434;38.520;2023-03-31T08:30:42;10.68;;;6.15;;
47760;SDS011;33524;55.434;38.520;2023-03-31T08:33:15;10.10;;;7.85;;
47760;SDS011;33524;55.434;38.520;2023-03-31T08:35:46;10.32;;;6.87;;
47760;SDS011;33524;55.434;38.520;2023-03-31T08:38:17;13.00;;;7.40;;
47760;SDS011;33524;55.434;38.520;2023-03-31T08:40:49;11.52;;;8.10;;
47760;SDS011;33524;55.434;38.520;2023-03-31T08:43:22;12.05;;;8.13;;
47760;SDS011;33524;55.434;38.520;2023-03-31T08:46:01;12.27;;;9.35;;
47760;SDS011;33524;55.434;38.520;2023-03-31T08:48:36;10.60;;;6.30;;
47760;SDS011;33524;55.434;38.520;2023-03-31T08:51:18;10.55;;;5.75;;
47760;SDS011;33524;55.434;38.520;2023-03-31T08:56:33;10.00;;;7.37;;
47760;SDS011;33524;55.434;38.520;2023-03-31T08:59:11;10.25;;;6.18;;
47760;SDS011;33524;55.434;38.520;2023-03-31T09:02:18;11.05;;;6.78;;
47760;SDS011;33524;55.434;38.520;2023-03-31T09:13:58;8.73;;;5.68;;
47760;SDS011;33524;55.434;38.520;2023-03-31T09:19:41;10.30;;;6.30;;
47760;SDS011;33524;55.434;38.520;2023-03-31T09:22:21;10.55;;;7.85;;
47760;SDS011;33524;55.434;38.520;2023-03-31T09:25:11;9.88;;;5.62;;
47760;SDS011;33524;55.434;38.520;2023-03-31T09:27:48;12.60;;;7.60;;
47760;SDS011;33524;55.434;38.520;2023-03-31T09:30:27;8.57;;;6.65;;
47760;SDS011;33524;55.434;38.520;2023-03-31T09:36:02;10.43;;;6.97;;
47760;SDS011;33524;55.434;38.520;2023-03-31T09:38:45;11.60;;;6.45;;
47760;SDS011;33524;55.434;38.520;2023-03-31T09:41:17;11.57;;;7.30;;
47760;SDS011;33524;55.434;38.520;2023-03-31T09:43:50;15.27;;;8.27;;
47760;SDS011;33524;55.434;38.520;2023-03-31T09:46:25;12.63;;;8.48;;
47760;SDS011;33524;55.434;38.520;2023-03-31T09:49:03;13.50;;;8.90;;
47760;SDS011;33524;55.434;38.520;2023-03-31T09:51:44;10.60;;;6.90;;
47760;SDS011;33524;55.434;38.520;2023-03-31T09:54:21;12.85;;;9.07;;
47760;SDS011;33524;55.434;38.520;2023-03-31T09:56:59;11.40;;;7.80;;
47760;SDS011;33524;55.434;38.520;2023-03-31T09:59:32;9.80;;;6.03;;
47760;SDS011;33524;55.434;38.520;2023-03-31T10:02:13;13.60;;;9.27;;
47760;SDS011;33524;55.434;38.520;2023-03-31T10:04:52;14.52;;;10.55;;
47760;SDS011;33524;55.434;38.520;2023-03-31T10:07:24;14.63;;;9.85;;
47760;SDS011;33524;55.434;38.520;2023-03-31T10:09:53;12.50;;;9.00;;
47760;SDS011;33524;55.434;38.520;2023-03-31T10:12:27;10.60;;;6.75;;
47760;SDS011;33524;55.434;38.520;2023-03-31T10:15:02;12.50;;;7.35;;
47760;SDS011;33524;55.434;38.520;2023-03-31T10:17:47;13.27;;;8.88;;
47760;SDS011;33524;55.434;38.520;2023-03-31T10:20:37;11.43;;;6.90;;
47760;SDS011;33524;55.434;38.520;2023-03-31T10:23:15;12.00;;;7.85;;
47760;SDS011;33524;55.434;38.520;2023-03-31T10:25:53;13.75;;;8.50;;
47760;SDS011;33524;55.434;38.520;2023-03-31T10:28:26;13.20;;;7.53;;
47760;SDS011;33524;55.434;38.520;2023-03-31T10:31:02;10.15;;;7.03;;
47760;SDS011;33524;55.434;38.520;2023-03-31T10:33:37;15.20;;;8.27;;
47760;SDS011;33524;55.434;38.520;2023-03-31T10:36:25;13.93;;;9.20;;
47760;SDS011;33524;55.434;38.520;2023-03-31T10:38:58;14.02;;;7.03;;
47760;SDS011;33524;55.434;38.520;2023-03-31T10:41:34;12.68;;;7.97;;
47760;SDS011;33524;55.434;38.520;2023-03-31T10:44:10;12.30;;;7.35;;
47760;SDS011;33524;55.434;38.520;2023-03-31T10:47:15;13.10;;;7.47;;
47760;SDS011;33524;55.434;38.520;2023-03-31T10:49:55;14.05;;;6.85;;
47760;SDS011;33524;55.434;38.520;2023-03-31T10:52:29;13.00;;;6.70;;
47760;SDS011;33524;55.434;38.520;2023-03-31T10:55:21;12.70;;;7.57;;
47760;SDS011;33524;55.434;38.520;2023-03-31T10:57:55;13.77;;;9.60;;
47760;SDS011;33524;55.434;38.520;2023-03-31T11:00:44;13.48;;;7.47;;
47760;SDS011;33524;55.434;38.520;2023-03-31T11:03:31;14.77;;;10.00;;
47760;SDS011;33524;55.434;38.520;2023-03-31T11:06:23;12.50;;;8.27;;
47760;SDS011;33524;55.434;38.520;2023-03-31T11:12:11;11.98;;;7.70;;
47760;SDS011;33524;55.434;38.520;2023-03-31T11:18:03;14.27;;;7.28;;
47760;SDS011;33524;55.434;38.520;2023-03-31T11:20:59;17.10;;;9.10;;
47760;SDS011;33524;55.434;38.520;2023-03-31T11:26:49;18.42;;;9.45;;
47760;SDS011;33524;55.434;38.520;2023-03-31T11:29:47;13.43;;;7.85;;
47760;SDS011;33524;55.434;38.520;2023-03-31T11:35:43;13.07;;;8.50;;
47760;SDS011;33524;55.434;38.520;2023-03-31T11:41:40;18.15;;;10.23;;
47760;SDS011;33524;55.434;38.520;2023-03-31T11:44:21;13.60;;;8.32;;
47760;SDS011;33524;55.434;38.520;2023-03-31T11:46:57;14.50;;;9.30;;
47760;SDS011;33524;55.434;38.520;2023-03-31T11:49:33;14.80;;;8.95;;
47760;SDS011;33524;55.434;38.520;2023-03-31T11:52:14;16.98;;;8.35;;
47760;SDS011;33524;55.434;38.520;2023-03-31T11:57:31;14.93;;;8.77;;
47760;SDS011;33524;55.434;38.520;2023-03-31T12:00:38;10.88;;;4.97;;
47760;SDS011;33524;55.434;38.520;2023-03-31T12:05:50;17.83;;;7.00;;
47760;SDS011;33524;55.434;38.520;2023-03-31T12:11:25;23.45;;;8.48;;
47760;SDS011;33524;55.434;38.520;2023-03-31T12:16:42;10.05;;;6.95;;
47760;SDS011;33524;55.434;38.520;2023-03-31T12:19:19;13.60;;;7.15;;
47760;SDS011;33524;55.434;38.520;2023-03-31T12:21:54;13.75;;;7.05;;
47760;SDS011;33524;55.434;38.520;2023-03-31T12:24:31;12.45;;;7.18;;
47760;SDS011;33524;55.434;38.520;2023-03-31T12:29:45;14.77;;;8.18;;
47760;SDS011;33524;55.434;38.520;2023-03-31T12:32:26;10.15;;;6.30;;
47760;SDS011;33524;55.434;38.520;2023-03-31T12:35:05;15.38;;;8.30;;
47760;SDS011;33524;55.434;38.520;2023-03-31T12:43:17;9.18;;;5.07;;
47760;SDS011;33524;55.434;38.520;2023-03-31T12:52:46;9.18;;;5.72;;
47760;SDS011;33524;55.434;38.520;2023-03-31T12:55:37;9.63;;;4.62;;
47760;SDS011;33524;55.434;38.520;2023-03-31T13:03:39;8.52;;;5.03;;
47760;SDS011;33524;55.434;38.520;2023-03-31T13:12:13;7.15;;;5.03;;
47760;SDS011;33524;55.434;38.520;2023-03-31T13:14:48;7.10;;;4.65;;
47760;SDS011;33524;55.434;38.520;2023-03-31T13:17:24;7.72;;;4.45;;
47760;SDS011;33524;55.434;38.520;2023-03-31T13:20:30;7.95;;;4.68;;
47760;SDS011;33524;55.434;38.520;2023-03-31T13:22:58;7.57;;;4.00;;
47760;SDS011;33524;55.434;38.520;2023-03-31T13:25:41;11.73;;;4.37;;
47760;SDS011;33524;55.434;38.520;2023-03-31T13:28:25;9.13;;;5.05;;
47760;SDS011;33524;55.434;38.520;2023-03-31T13:31:02;7.00;;;4.43;;
47760;SDS011;33524;55.434;38.520;2023-03-31T13:33:53;6.87;;;4.05;;
47760;SDS011;33524;55.434;38.520;2023-03-31T13:51:56;5.85;;;3.65;;
47760;SDS011;33524;55.434;38.520;2023-03-31T13:54:42;7.93;;;4.32;;
47760;SDS011;33524;55.434;38.520;2023-03-31T14:00:50;6.80;;;4.18;;
47760;SDS011;33524;55.434;38.520;2023-03-31T14:03:37;8.57;;;4.32;;
47760;SDS011;33524;55.434;38.520;2023-03-31T14:06:25;7.00;;;3.95;;
47760;SDS011;33524;55.434;38.520;2023-03-31T14:09:22;6.05;;;3.80;;
47760;SDS011;33524;55.434;38.520;2023-03-31T14:11:58;6.68;;;3.95;;
47760;SDS011;33524;55.434;38.520;2023-03-31T14:14:31;6.28;;;3.70;;
47760;SDS011;33524;55.434;38.520;2023-03-31T14:17:03;7.68;;;4.45;;
47760;SDS011;33524;55.434;38.520;2023-03-31T14:23:28;7.37;;;3.97;;
47760;SDS011;33524;55.434;38.520;2023-03-31T14:27:59;6.53;;;4.37;;
47760;SDS011;33524;55.434;38.520;2023-03-31T14:34:18;5.45;;;3.58;;
47760;SDS011;33524;55.434;38.520;2023-03-31T14:37:08;6.45;;;4.20;;
47760;SDS011;33524;55.434;38.520;2023-03-31T14:39:46;7.68;;;4.80;;
47760;SDS011;33524;55.434;38.520;2023-03-31T14:42:36;9.40;;;5.85;;
47760;SDS011;33524;55.434;38.520;2023-03-31T14:45:17;10.70;;;6.97;;
47760;SDS011;33524;55.434;38.520;2023-03-31T14:47:54;14.65;;;7.40;;
47760;SDS011;33524;55.434;38.520;2023-03-31T14:50:28;9.55;;;6.35;;
47760;SDS011;33524;55.434;38.520;2023-03-31T14:53:02;11.50;;;6.87;;
47760;SDS011;33524;55.434;38.520;2023-03-31T14:55:43;15.32;;;8.23;;
47760;SDS011;33524;55.434;38.520;2023-03-31T14:58:30;10.65;;;7.05;;
47760;SDS011;33524;55.434;38.520;2023-03-31T15:01:03;12.45;;;7.47;;
47760;SDS011;33524;55.434;38.520;2023-03-31T15:03:39;12.45;;;8.30;;
47760;SDS011;33524;55.434;38.520;2023-03-31T15:08:43;14.57;;;7.97;;
47760;SDS011;33524;55.434;38.520;2023-03-31T15:11:15;12.05;;;7.97;;
47760;SDS011;33524;55.434;38.520;2023-03-31T15:13:51;16.20;;;7.65;;
47760;SDS011;33524;55.434;38.520;2023-03-31T15:16:34;12.32;;;8.13;;
47760;SDS011;33524;55.434;38.520;2023-03-31T15:19:14;13.32;;;7.28;;
47760;SDS011;33524;55.434;38.520;2023-03-31T15:21:53;11.15;;;6.22;;
47760;SDS011;33524;55.434;38.520;2023-03-31T15:24:31;10.95;;;6.15;;
47760;SDS011;33524;55.434;38.520;2023-03-31T15:27:04;10.80;;;7.12;;
47760;SDS011;33524;55.434;38.520;2023-03-31T15:29:52;9.23;;;6.57;;
47760;SDS011;33524;55.434;38.520;2023-03-31T15:32:31;9.98;;;6.45;;
47760;SDS011;33524;55.434;38.520;2023-03-31T15:35:10;8.40;;;6.50;;
47760;SDS011;33524;55.434;38.520;2023-03-31T15:37:53;9.80;;;6.28;;
47760;SDS011;33524;55.434;38.520;2023-03-31T15:40:27;10.60;;;6.87;;
47760;SDS011;33524;55.434;38.520;2023-03-31T15:43:04;9.23;;;6.00;;
47760;SDS011;33524;55.434;38.520;2023-03-31T15:45:50;10.65;;;6.68;;
47760;SDS011;33524;55.434;38.520;2023-03-31T15:48:32;9.93;;;6.72;;
47760;SDS011;33524;55.434;38.520;2023-03-31T15:53:47;7.75;;;4.80;;
47760;SDS011;33524;55.434;38.520;2023-03-31T15:59:21;9.93;;;5.10;;
47760;SDS011;33524;55.434;38.520;2023-03-31T16:02:11;16.92;;;8.73;;
47760;SDS011;33524;55.434;38.520;2023-03-31T16:04:47;18.77;;;8.60;;
47760;SDS011;33524;55.434;38.520;2023-03-31T16:07:24;16.73;;;8.82;;
47760;SDS011;33524;55.434;38.520;2023-03-31T16:12:34;10.50;;;7.03;;
47760;SDS011;33524;55.434;38.520;2023-03-31T16:15:13;13.13;;;7.70;;
47760;SDS011;33524;55.434;38.520;2023-03-31T16:17:55;19.08;;;11.00;;
47760;SDS011;33524;55.434;38.520;2023-03-31T16:20:35;15.85;;;10.70;;
47760;SDS011;33524;55.434;38.520;2023-03-31T16:23:12;17.30;;;11.43;;
47760;SDS011;33524;55.434;38.520;2023-03-31T16:25:47;16.45;;;12.10;;
47760;SDS011;33524;55.434;38.520;2023-03-31T16:28:19;16.77;;;11.75;;
47760;SDS011;33524;55.434;38.520;2023-03-31T16:30:56;19.77;;;13.15;;
47760;SDS011;33524;55.434;38.520;2023-03-31T16:33:30;18.52;;;13.10;;
47760;SDS011;33524;55.434;38.520;2023-03-31T16:36:24;18.87;;;12.40;;
47760;SDS011;33524;55.434;38.520;2023-03-31T16:38:55;19.15;;;12.60;;
47760;SDS011;33524;55.434;38.520;2023-03-31T16:41:31;20.10;;;13.68;;
47760;SDS011;33524;55.434;38.520;2023-03-31T16:46:34;22.62;;;15.35;;
47760;SDS011;33524;55.434;38.520;2023-03-31T16:49:05;21.30;;;13.93;;
47760;SDS011;33524;55.434;38.520;2023-03-31T16:51:36;21.45;;;13.75;;
47760;SDS011;33524;55.434;38.520;2023-03-31T16:54:09;16.73;;;11.77;;
47760;SDS011;33524;55.434;38.520;2023-03-31T16:56:41;14.05;;;10.30;;
47760;SDS011;33524;55.434;38.520;2023-03-31T16:59:13;20.08;;;12.70;;
47760;SDS011;33524;55.434;38.520;2023-03-31T17:04:17;27.60;;;13.70;;
47760;SDS011;33524;55.434;38.520;2023-03-31T17:06:50;30.98;;;16.42;;
47760;SDS011;33524;55.434;38.520;2023-03-31T17:09:22;27.65;;;15.48;;
47760;SDS011;33524;55.434;38.520;2023-03-31T17:11:53;37.03;;;20.62;;
47760;SDS011;33524;55.434;38.520;2023-03-31T17:14:26;51.50;;;26.58;;
47760;SDS011;33524;55.434;38.520;2023-03-31T17:17:01;37.22;;;20.65;;
47760;SDS011;33524;55.434;38.520;2023-03-31T17:19:32;42.67;;;22.48;;
47760;SDS011;33524;55.434;38.520;2023-03-31T17:22:05;49.08;;;23.20;;
47760;SDS011;33524;55.434;38.520;2023-03-31T17:24:49;37.08;;;19.80;;
47760;SDS011;33524;55.434;38.520;2023-03-31T17:27:27;31.67;;;18.87;;
47760;SDS011;33524;55.434;38.520;2023-03-31T17:29:59;32.80;;;17.58;;
47760;SDS011;33524;55.434;38.520;2023-03-31T17:32:50;26.20;;;16.08;;
47760;SDS011;33524;55.434;38.520;2023-03-31T17:35:23;23.35;;;13.48;;
47760;SDS011;33524;55.434;38.520;2023-03-31T17:37:56;22.33;;;13.27;;
47760;SDS011;33524;55.434;38.520;2023-03-31T17:40:28;19.58;;;12.50;;
47760;SDS011;33524;55.434;38.520;2023-03-31T17:43:03;17.95;;;10.60;;
47760;SDS011;33524;55.434;38.520;2023-03-31T17:45:35;18.87;;;11.88;;
47760;SDS011;33524;55.434;38.520;2023-03-31T17:48:26;15.95;;;10.93;;
47760;SDS011;33524;55.434;38.520;2023-03-31T17:51:17;19.83;;;10.40;;
47760;SDS011;33524;55.434;38.520;2023-03-31T17:53:51;14.75;;;10.27;;
47760;SDS011;33524;55.434;38.520;2023-03-31T17:56:23;15.50;;;9.75;;